sensor_id;sensor_type;location;lat;lon;timestamp;pressure;altitude;pressure_sealevel;temperature;humidity
38718;BME280;24468;52.128;9.278;2022-09-01T00:01:52;101377.50;;;13.36;100.00
38718;BME280;24468;52.128;9.278;2022-09-01T00:04:21;101383.66;;;13.18;100.00
38718;BME280;24468;52.128;9.278;2022-09-01T00:06:50;101386.78;;;13.30;100.00
38718;BME280;24468;52.128;9.278;2022-09-01T00:09:20;101375.59;;;13.16;100.00
38718;BME280;24468;52.128;9.278;2022-09-01T00:11:51;101380.00;;;12.97;100.00
38718;BME280;24468;52.128;9.278;2022-09-01T00:14:21;101378.38;;;13.15;100.00
38718;BME280;24468;52.128;9.278;2022-09-01T00:16:46;101380.91;;;13.19;100.00
38718;BME280;24468;52.128;9.278;2022-09-01T00:19:12;101382.78;;;13.17;100.00
38718;BME280;24468;52.128;9.278;2022-09-01T00:21:43;101387.78;;;13.06;100.00
38718;BME280;24468;52.128;9.278;2022-09-01T00:24:11;101385.25;;;13.01;100.00
38718;BME280;24468;52.128;9.278;2022-09-01T00:26:37;101389.22;;;13.15;100.00
38718;BME280;24468;52.128;9.278;2022-09-01T00:29:03;101391.38;;;13.28;100.00
38718;BME280;24468;52.128;9.278;2022-09-01T00:31:30;101380.00;;;13.19;100.00
38718;BME280;24468;52.128;9.278;2022-09-01T00:33:56;101389.69;;;13.24;100.00
38718;BME280;24468;52.128;9.278;2022-09-01T00:36:21;101384.22;;;13.27;100.00
38718;BME280;24468;52.128;9.278;2022-09-01T00:38:49;101393.34;;;13.23;100.00
38718;BME280;24468;52.128;9.278;2022-09-01T00:41:16;101391.03;;;13.14;100.00
38718;BME280;24468;52.128;9.278;2022-09-01T00:43:56;101382.28;;;13.07;100.00
38718;BME280;24468;52.128;9.278;2022-09-01T00:46:25;101388.72;;;13.27;100.00
38718;BME280;24468;52.128;9.278;2022-09-01T00:51:43;101389.09;;;13.18;100.00
38718;BME280;24468;52.128;9.278;2022-09-01T00:54:15;101382.97;;;13.12;100.00
38718;BME280;24468;52.128;9.278;2022-09-01T00:56:43;101379.56;;;13.07;100.00
38718;BME280;24468;52.128;9.278;2022-09-01T00:59:09;101395.06;;;12.58;100.00
38718;BME280;24468;52.128;9.278;2022-09-01T01:01:37;101384.28;;;13.02;100.00
38718;BME280;24468;52.128;9.278;2022-09-01T01:04:05;101384.41;;;12.99;100.00
38718;BME280;24468;52.128;9.278;2022-09-01T01:06:31;101389.66;;;13.04;100.00
38718;BME280;24468;52.128;9.278;2022-09-01T01:08:58;101389.25;;;12.91;100.00
38718;BME280;24468;52.128;9.278;2022-09-01T01:11:28;101381.56;;;12.80;100.00
38718;BME280;24468;52.128;9.278;2022-09-01T01:14:03;101389.44;;;12.64;100.00
38718;BME280;24468;52.128;9.278;2022-09-01T01:16:39;101382.63;;;12.54;100.00
38718;BME280;24468;52.128;9.278;2022-09-01T01:25:29;101382.53;;;12.79;100.00
38718;BME280;24468;52.128;9.278;2022-09-01T01:28:21;101384.44;;;12.54;100.00
38718;BME280;24468;52.128;9.278;2022-09-01T01:30:55;101381.63;;;12.33;100.00
38718;BME280;24468;52.128;9.278;2022-09-01T01:33:28;101379.50;;;12.18;100.00
38718;BME280;24468;52.128;9.278;2022-09-01T01:35:54;101383.09;;;12.18;100.00
38718;BME280;24468;52.128;9.278;2022-09-01T01:38:22;101390.13;;;11.99;100.00
38718;BME280;24468;52.128;9.278;2022-09-01T01:40:50;101388.69;;;11.89;100.00
38718;BME280;24468;52.128;9.278;2022-09-01T01:43:19;101378.72;;;12.14;100.00
38718;BME280;24468;52.128;9.278;2022-09-01T01:45:48;101383.63;;;12.52;100.00
38718;BME280;24468;52.128;9.278;2022-09-01T01:48:20;101388.91;;;12.55;100.00
38718;BME280;24468;52.128;9.278;2022-09-01T01:50:47;101387.78;;;12.84;100.00
38718;BME280;24468;52.128;9.278;2022-09-01T01:53:14;101377.16;;;13.00;100.00
38718;BME280;24468;52.128;9.278;2022-09-01T01:55:42;101382.56;;;13.22;100.00
38718;BME280;24468;52.128;9.278;2022-09-01T01:58:08;101384.53;;;13.18;100.00
38718;BME280;24468;52.128;9.278;2022-09-01T02:00:36;101377.88;;;13.27;100.00
38718;BME280;24468;52.128;9.278;2022-09-01T02:03:02;101383.94;;;13.33;100.00
38718;BME280;24468;52.128;9.278;2022-09-01T02:05:31;101378.47;;;13.55;100.00
38718;BME280;24468;52.128;9.278;2022-09-01T02:08:07;101380.41;;;13.31;100.00
38718;BME280;24468;52.128;9.278;2022-09-01T02:10:54;101379.50;;;13.09;100.00
38718;BME280;24468;52.128;9.278;2022-09-01T02:13:22;101387.88;;;13.25;100.00
38718;BME280;24468;52.128;9.278;2022-09-01T02:16:01;101384.63;;;14.00;100.00
38718;BME280;24468;52.128;9.278;2022-09-01T02:18:33;101385.59;;;13.99;100.00
38718;BME280;24468;52.128;9.278;2022-09-01T02:21:05;101386.38;;;13.60;100.00
38718;BME280;24468;52.128;9.278;2022-09-01T02:23:35;101383.25;;;13.28;100.00
38718;BME280;24468;52.128;9.278;2022-09-01T02:26:00;101380.66;;;13.03;100.00
38718;BME280;24468;52.128;9.278;2022-09-01T02:28:30;101381.41;;;13.07;100.00
38718;BME280;24468;52.128;9.278;2022-09-01T02:30:57;101378.88;;;13.02;100.00
38718;BME280;24468;52.128;9.278;2022-09-01T02:33:25;101386.44;;;12.94;100.00
38718;BME280;24468;52.128;9.278;2022-09-01T02:35:59;101381.00;;;12.94;100.00
38718;BME280;24468;52.128;9.278;2022-09-01T02:38:27;101377.69;;;12.87;100.00
38718;BME280;24468;52.128;9.278;2022-09-01T02:40:55;101378.38;;;12.71;100.00
38718;BME280;24468;52.128;9.278;2022-09-01T02:43:23;101371.94;;;12.73;100.00
38718;BME280;24468;52.128;9.278;2022-09-01T02:45:55;101377.50;;;12.70;100.00
38718;BME280;24468;52.128;9.278;2022-09-01T02:48:36;101371.66;;;12.57;100.00
38718;BME280;24468;52.128;9.278;2022-09-01T02:51:14;101362.44;;;12.39;100.00
38718;BME280;24468;52.128;9.278;2022-09-01T02:53:42;101368.34;;;12.51;100.00
38718;BME280;24468;52.128;9.278;2022-09-01T02:56:10;101358.81;;;12.40;100.00
38718;BME280;24468;52.128;9.278;2022-09-01T02:58:43;101358.81;;;12.40;100.00
38718;BME280;24468;52.128;9.278;2022-09-01T03:01:25;101356.22;;;12.14;100.00
38718;BME280;24468;52.128;9.278;2022-09-01T03:04:02;101358.75;;;12.18;100.00
38718;BME280;24468;52.128;9.278;2022-09-01T03:06:32;101363.75;;;12.29;100.00
38718;BME280;24468;52.128;9.278;2022-09-01T03:08:59;101357.19;;;13.02;100.00
38718;BME280;24468;52.128;9.278;2022-09-01T03:11:27;101359.72;;;12.85;100.00
38718;BME280;24468;52.128;9.278;2022-09-01T03:13:53;101354.00;;;12.93;100.00
38718;BME280;24468;52.128;9.278;2022-09-01T03:16:20;101351.47;;;12.66;100.00
38718;BME280;24468;52.128;9.278;2022-09-01T03:18:46;101355.38;;;12.35;100.00
38718;BME280;24468;52.128;9.278;2022-09-01T03:21:13;101356.50;;;12.06;100.00
38718;BME280;24468;52.128;9.278;2022-09-01T03:23:40;101359.53;;;11.72;100.00
38718;BME280;24468;52.128;9.278;2022-09-01T03:26:06;101343.31;;;11.72;100.00
38718;BME280;24468;52.128;9.278;2022-09-01T03:28:32;101352.69;;;11.62;100.00
38718;BME280;24468;52.128;9.278;2022-09-01T03:30:58;101349.25;;;11.56;100.00
38718;BME280;24468;52.128;9.278;2022-09-01T03:33:26;101358.06;;;11.37;100.00
38718;BME280;24468;52.128;9.278;2022-09-01T03:35:53;101360.28;;;11.25;100.00
38718;BME280;24468;52.128;9.278;2022-09-01T03:38:19;101359.84;;;11.38;100.00
38718;BME280;24468;52.128;9.278;2022-09-01T03:40:48;101368.63;;;11.44;100.00
38718;BME280;24468;52.128;9.278;2022-09-01T03:43:14;101355.88;;;11.48;100.00
38718;BME280;24468;52.128;9.278;2022-09-01T03:45:41;101358.44;;;11.52;100.00
38718;BME280;24468;52.128;9.278;2022-09-01T03:48:08;101357.63;;;11.49;100.00
38718;BME280;24468;52.128;9.278;2022-09-01T03:50:39;101353.22;;;11.46;100.00
38718;BME280;24468;52.128;9.278;2022-09-01T03:53:13;101359.97;;;11.60;100.00
38718;BME280;24468;52.128;9.278;2022-09-01T03:55:39;101354.13;;;11.47;100.00
38718;BME280;24468;52.128;9.278;2022-09-01T03:58:08;101354.31;;;11.41;100.00
38718;BME280;24468;52.128;9.278;2022-09-01T04:00:39;101357.97;;;11.13;100.00
38718;BME280;24468;52.128;9.278;2022-09-01T04:03:11;101362.59;;;11.09;100.00
38718;BME280;24468;52.128;9.278;2022-09-01T04:05:38;101360.34;;;10.96;100.00
38718;BME280;24468;52.128;9.278;2022-09-01T04:08:07;101361.47;;;11.17;100.00
38718;BME280;24468;52.128;9.278;2022-09-01T04:10:48;101358.81;;;11.15;100.00
38718;BME280;24468;52.128;9.278;2022-09-01T04:13:32;101349.50;;;11.24;100.00
38718;BME280;24468;52.128;9.278;2022-09-01T04:15:58;101355.00;;;10.94;100.00
38718;BME280;24468;52.128;9.278;2022-09-01T04:18:24;101355.97;;;11.20;100.00
38718;BME280;24468;52.128;9.278;2022-09-01T04:20:56;101364.34;;;10.84;100.00
38718;BME280;24468;52.128;9.278;2022-09-01T04:23:31;101360.84;;;10.80;100.00
38718;BME280;24468;52.128;9.278;2022-09-01T04:26:11;101368.25;;;11.02;100.00
38718;BME280;24468;52.128;9.278;2022-09-01T04:28:48;101370.81;;;11.06;100.00
38718;BME280;24468;52.128;9.278;2022-09-01T04:31:18;101367.66;;;11.20;100.00
38718;BME280;24468;52.128;9.278;2022-09-01T04:33:50;101366.50;;;11.01;100.00
38718;BME280;24468;52.128;9.278;2022-09-01T04:36:24;101361.47;;;10.88;100.00
38718;BME280;24468;52.128;9.278;2022-09-01T04:39:11;101363.41;;;10.85;100.00
38718;BME280;24468;52.128;9.278;2022-09-01T04:41:41;101370.53;;;10.87;100.00
38718;BME280;24468;52.128;9.278;2022-09-01T04:44:08;101368.50;;;10.66;100.00
38718;BME280;24468;52.128;9.278;2022-09-01T04:46:38;101373.31;;;10.56;100.00
38718;BME280;24468;52.128;9.278;2022-09-01T04:49:07;101373.56;;;10.77;100.00
38718;BME280;24468;52.128;9.278;2022-09-01T04:51:43;101374.53;;;10.74;100.00
38718;BME280;24468;52.128;9.278;2022-09-01T04:54:10;101383.97;;;10.31;100.00
38718;BME280;24468;52.128;9.278;2022-09-01T04:56:41;101380.59;;;10.53;100.00
38718;BME280;24468;52.128;9.278;2022-09-01T04:59:08;101380.75;;;10.78;100.00
38718;BME280;24468;52.128;9.278;2022-09-01T05:01:35;101377.00;;;10.82;100.00
38718;BME280;24468;52.128;9.278;2022-09-01T05:04:25;101379.50;;;10.60;100.00
38718;BME280;24468;52.128;9.278;2022-09-01T05:06:57;101375.72;;;10.65;100.00
38718;BME280;24468;52.128;9.278;2022-09-01T05:09:29;101375.34;;;10.78;100.00
38718;BME280;24468;52.128;9.278;2022-09-01T05:11:57;101378.59;;;10.89;100.00
38718;BME280;24468;52.128;9.278;2022-09-01T05:14:45;101372.88;;;10.98;100.00
38718;BME280;24468;52.128;9.278;2022-09-01T05:17:13;101373.09;;;11.19;100.00
38718;BME280;24468;52.128;9.278;2022-09-01T05:19:41;101368.94;;;11.08;100.00
38718;BME280;24468;52.128;9.278;2022-09-01T05:22:08;101370.81;;;11.06;100.00
38718;BME280;24468;52.128;9.278;2022-09-01T05:24:35;101372.28;;;11.17;100.00
38718;BME280;24468;52.128;9.278;2022-09-01T05:27:04;101368.50;;;11.47;100.00
38718;BME280;24468;52.128;9.278;2022-09-01T05:29:30;101368.78;;;11.65;100.00
38718;BME280;24468;52.128;9.278;2022-09-01T05:31:56;101366.47;;;11.54;100.00
38718;BME280;24468;52.128;9.278;2022-09-01T05:34:24;101360.38;;;11.74;100.00
38718;BME280;24468;52.128;9.278;2022-09-01T05:36:58;101362.72;;;12.08;100.00
38718;BME280;24468;52.128;9.278;2022-09-01T05:39:26;101364.56;;;12.31;100.00
38718;BME280;24468;52.128;9.278;2022-09-01T05:41:52;101368.13;;;13.01;100.00
38718;BME280;24468;52.128;9.278;2022-09-01T05:44:19;101363.50;;;13.67;100.00
38718;BME280;24468;52.128;9.278;2022-09-01T05:46:48;101359.75;;;14.30;100.00
38718;BME280;24468;52.128;9.278;2022-09-01T05:49:14;101360.59;;;14.11;100.00
38718;BME280;24468;52.128;9.278;2022-09-01T05:51:47;101364.06;;;14.34;100.00
38718;BME280;24468;52.128;9.278;2022-09-01T05:54:22;101361.13;;;15.14;100.00
38718;BME280;24468;52.128;9.278;2022-09-01T05:56:49;101357.84;;;15.60;100.00
38718;BME280;24468;52.128;9.278;2022-09-01T05:59:18;101353.41;;;15.59;100.00
38718;BME280;24468;52.128;9.278;2022-09-01T06:01:46;101356.50;;;15.51;100.00
38718;BME280;24468;52.128;9.278;2022-09-01T06:04:13;101356.13;;;15.76;100.00
38718;BME280;24468;52.128;9.278;2022-09-01T06:06:44;101356.66;;;16.00;100.00
38718;BME280;24468;52.128;9.278;2022-09-01T06:09:10;101360.53;;;15.78;100.00
38718;BME280;24468;52.128;9.278;2022-09-01T06:11:36;101362.19;;;15.64;100.00
38718;BME280;24468;52.128;9.278;2022-09-01T06:14:03;101356.25;;;15.38;100.00
38718;BME280;24468;52.128;9.278;2022-09-01T06:16:30;101356.91;;;15.61;100.00
38718;BME280;24468;52.128;9.278;2022-09-01T06:18:56;101357.00;;;15.76;100.00
38718;BME280;24468;52.128;9.278;2022-09-01T06:21:25;101355.31;;;15.91;100.00
38718;BME280;24468;52.128;9.278;2022-09-01T06:23:53;101352.94;;;16.34;100.00
38718;BME280;24468;52.128;9.278;2022-09-01T06:26:23;101352.66;;;16.23;100.00
38718;BME280;24468;52.128;9.278;2022-09-01T06:29:04;101349.41;;;16.16;100.00
38718;BME280;24468;52.128;9.278;2022-09-01T06:31:33;101353.13;;;16.31;100.00
38718;BME280;24468;52.128;9.278;2022-09-01T06:34:04;101351.56;;;16.59;100.00
38718;BME280;24468;52.128;9.278;2022-09-01T06:36:30;101345.34;;;16.57;100.00
38718;BME280;24468;52.128;9.278;2022-09-01T06:39:02;101353.72;;;16.85;100.00
38718;BME280;24468;52.128;9.278;2022-09-01T06:41:28;101349.50;;;16.80;100.00
38718;BME280;24468;52.128;9.278;2022-09-01T06:43:55;101355.44;;;17.18;100.00
38718;BME280;24468;52.128;9.278;2022-09-01T06:46:21;101358.97;;;17.20;100.00
38718;BME280;24468;52.128;9.278;2022-09-01T06:48:48;101365.94;;;16.78;100.00
38718;BME280;24468;52.128;9.278;2022-09-01T06:51:18;101365.22;;;17.22;100.00
38718;BME280;24468;52.128;9.278;2022-09-01T06:53:46;101370.69;;;17.22;100.00
38718;BME280;24468;52.128;9.278;2022-09-01T06:56:16;101366.75;;;16.96;100.00
38718;BME280;24468;52.128;9.278;2022-09-01T06:58:43;101368.22;;;17.78;100.00
38718;BME280;24468;52.128;9.278;2022-09-01T07:01:14;101368.78;;;17.99;100.00
38718;BME280;24468;52.128;9.278;2022-09-01T07:03:47;101377.34;;;17.63;100.00
38718;BME280;24468;52.128;9.278;2022-09-01T07:06:13;101372.88;;;17.92;100.00
38718;BME280;24468;52.128;9.278;2022-09-01T07:08:40;101374.16;;;18.43;100.00
38718;BME280;24468;52.128;9.278;2022-09-01T07:11:16;101373.66;;;18.08;100.00
38718;BME280;24468;52.128;9.278;2022-09-01T07:13:48;101374.41;;;17.82;100.00
38718;BME280;24468;52.128;9.278;2022-09-01T07:16:17;101374.38;;;18.40;100.00
38718;BME280;24468;52.128;9.278;2022-09-01T07:18:54;101368.19;;;18.80;97.95
38718;BME280;24468;52.128;9.278;2022-09-01T07:21:26;101374.91;;;19.16;94.89
38718;BME280;24468;52.128;9.278;2022-09-01T07:23:52;101382.50;;;19.25;94.09
38718;BME280;24468;52.128;9.278;2022-09-01T07:26:18;101383.84;;;18.35;100.00
38718;BME280;24468;52.128;9.278;2022-09-01T07:28:45;101385.75;;;18.47;100.00
38718;BME280;24468;52.128;9.278;2022-09-01T07:31:30;101378.75;;;19.13;96.51
38718;BME280;24468;52.128;9.278;2022-09-01T07:34:03;101379.88;;;18.96;97.53
38718;BME280;24468;52.128;9.278;2022-09-01T07:36:30;101385.47;;;18.66;98.05
38718;BME280;24468;52.128;9.278;2022-09-01T07:38:58;101384.09;;;18.87;100.00
38718;BME280;24468;52.128;9.278;2022-09-01T07:41:26;101379.72;;;19.12;96.53
38718;BME280;24468;52.128;9.278;2022-09-01T07:43:53;101378.03;;;19.64;91.52
38718;BME280;24468;52.128;9.278;2022-09-01T07:46:23;101374.16;;;19.81;89.43
38718;BME280;24468;52.128;9.278;2022-09-01T07:48:53;101371.94;;;19.73;91.32
38718;BME280;24468;52.128;9.278;2022-09-01T07:51:21;101373.31;;;20.06;87.20
38718;BME280;24468;52.128;9.278;2022-09-01T07:53:47;101367.97;;;19.64;92.33
38718;BME280;24468;52.128;9.278;2022-09-01T07:56:15;101378.16;;;19.35;95.17
38718;BME280;24468;52.128;9.278;2022-09-01T07:58:44;101376.47;;;19.60;91.70
38718;BME280;24468;52.128;9.278;2022-09-01T08:01:13;101378.31;;;19.86;89.16
38718;BME280;24468;52.128;9.278;2022-09-01T08:03:41;101372.06;;;19.84;89.87
38718;BME280;24468;52.128;9.278;2022-09-01T08:06:12;101376.78;;;20.20;85.31
38718;BME280;24468;52.128;9.278;2022-09-01T08:08:39;101379.88;;;20.29;85.10
38718;BME280;24468;52.128;9.278;2022-09-01T08:11:07;101382.94;;;19.98;88.40
38718;BME280;24468;52.128;9.278;2022-09-01T08:13:35;101381.41;;;20.33;85.85
38718;BME280;24468;52.128;9.278;2022-09-01T08:16:06;101380.97;;;20.39;84.15
38718;BME280;24468;52.128;9.278;2022-09-01T08:18:32;101382.94;;;20.11;85.97
38718;BME280;24468;52.128;9.278;2022-09-01T08:20:58;101376.66;;;20.35;81.77
38718;BME280;24468;52.128;9.278;2022-09-01T08:23:24;101372.63;;;20.66;80.49
38718;BME280;24468;52.128;9.278;2022-09-01T08:25:52;101387.13;;;20.55;78.97
38718;BME280;24468;52.128;9.278;2022-09-01T08:28:18;101379.84;;;19.90;85.81
38718;BME280;24468;52.128;9.278;2022-09-01T08:30:45;101385.56;;;20.13;82.07
38718;BME280;24468;52.128;9.278;2022-09-01T08:33:13;101378.31;;;20.50;78.53
38718;BME280;24468;52.128;9.278;2022-09-01T08:35:41;101370.97;;;21.00;76.11
38718;BME280;24468;52.128;9.278;2022-09-01T08:38:07;101378.75;;;21.30;74.26
38718;BME280;24468;52.128;9.278;2022-09-01T08:40:33;101382.31;;;20.96;77.27
38718;BME280;24468;52.128;9.278;2022-09-01T08:46:16;101382.09;;;20.86;76.05
38718;BME280;24468;52.128;9.278;2022-09-01T08:49:40;101380.72;;;20.68;77.17
38718;BME280;24468;52.128;9.278;2022-09-01T08:52:34;101383.13;;;20.72;79.31
38718;BME280;24468;52.128;9.278;2022-09-01T08:57:40;101389.22;;;20.88;77.16
38718;BME280;24468;52.128;9.278;2022-09-01T09:00:10;101381.53;;;20.94;76.21
38718;BME280;24468;52.128;9.278;2022-09-01T09:06:25;101384.47;;;20.41;77.98
38718;BME280;24468;52.128;9.278;2022-09-01T09:09:08;101378.56;;;20.97;77.39
38718;BME280;24468;52.128;9.278;2022-09-01T09:17:56;101378.06;;;21.16;74.60
38718;BME280;24468;52.128;9.278;2022-09-01T09:20:27;101373.63;;;21.02;74.64
38718;BME280;24468;52.128;9.278;2022-09-01T09:22:53;101371.84;;;21.73;71.63
38718;BME280;24468;52.128;9.278;2022-09-01T09:25:20;101389.16;;;21.97;69.96
38718;BME280;24468;52.128;9.278;2022-09-01T09:27:48;101374.38;;;21.87;68.13
38718;BME280;24468;52.128;9.278;2022-09-01T09:30:26;101381.56;;;21.42;73.78
38718;BME280;24468;52.128;9.278;2022-09-01T09:35:44;101374.97;;;21.80;68.83
38718;BME280;24468;52.128;9.278;2022-09-01T09:41:07;101367.81;;;21.66;69.63
38718;BME280;24468;52.128;9.278;2022-09-01T09:43:45;101363.38;;;22.23;65.44
38718;BME280;24468;52.128;9.278;2022-09-01T09:46:37;101359.66;;;22.46;63.12
38718;BME280;24468;52.128;9.278;2022-09-01T09:49:21;101366.78;;;22.02;66.22
38718;BME280;24468;52.128;9.278;2022-09-01T09:52:16;101358.13;;;22.19;63.20
38718;BME280;24468;52.128;9.278;2022-09-01T09:55:17;101351.00;;;22.39;61.21
38718;BME280;24468;52.128;9.278;2022-09-01T09:57:43;101351.13;;;22.60;61.58
38718;BME280;24468;52.128;9.278;2022-09-01T10:00:22;101343.63;;;22.51;62.00
38718;BME280;24468;52.128;9.278;2022-09-01T10:02:57;101341.88;;;22.61;60.50
38718;BME280;24468;52.128;9.278;2022-09-01T10:05:45;101356.81;;;22.12;60.22
38718;BME280;24468;52.128;9.278;2022-09-01T10:08:41;101334.13;;;22.55;59.69
38718;BME280;24468;52.128;9.278;2022-09-01T10:11:38;101342.75;;;22.62;60.12
38718;BME280;24468;52.128;9.278;2022-09-01T10:14:10;101334.06;;;23.00;57.21
38718;BME280;24468;52.128;9.278;2022-09-01T10:16:39;101335.75;;;23.24;55.63
38718;BME280;24468;52.128;9.278;2022-09-01T10:19:11;101335.59;;;22.59;58.04
38718;BME280;24468;52.128;9.278;2022-09-01T10:21:40;101337.09;;;22.97;56.27
38718;BME280;24468;52.128;9.278;2022-09-01T10:24:17;101329.44;;;23.01;55.05
38718;BME280;24468;52.128;9.278;2022-09-01T10:26:46;101329.88;;;22.40;56.59
38718;BME280;24468;52.128;9.278;2022-09-01T10:29:25;101326.66;;;23.12;53.91
38718;BME280;24468;52.128;9.278;2022-09-01T10:31:55;101322.19;;;22.89;53.74
38718;BME280;24468;52.128;9.278;2022-09-01T10:34:21;101317.34;;;23.24;53.03
38718;BME280;24468;52.128;9.278;2022-09-01T10:36:47;101305.50;;;23.66;52.07
38718;BME280;24468;52.128;9.278;2022-09-01T10:39:17;101315.31;;;23.59;51.40
38718;BME280;24468;52.128;9.278;2022-09-01T10:41:54;101310.66;;;23.38;51.14
38718;BME280;24468;52.128;9.278;2022-09-01T10:44:37;101318.41;;;23.12;51.65
38718;BME280;24468;52.128;9.278;2022-09-01T10:47:33;101311.72;;;23.26;51.04
38718;BME280;24468;52.128;9.278;2022-09-01T10:50:27;101297.31;;;22.90;50.87
38718;BME280;24468;52.128;9.278;2022-09-01T10:53:00;101311.53;;;22.52;53.24
38718;BME280;24468;52.128;9.278;2022-09-01T11:01:05;101308.38;;;23.11;50.78
38718;BME280;24468;52.128;9.278;2022-09-01T11:06:02;101307.69;;;23.83;49.08
38718;BME280;24468;52.128;9.278;2022-09-01T11:11:27;101299.72;;;23.48;48.06
38718;BME280;24468;52.128;9.278;2022-09-01T11:13:58;101301.91;;;23.33;49.61
38718;BME280;24468;52.128;9.278;2022-09-01T11:16:36;101299.53;;;24.03;47.09
38718;BME280;24468;52.128;9.278;2022-09-01T11:19:30;101295.19;;;23.79;47.10
38718;BME280;24468;52.128;9.278;2022-09-01T11:27:04;101300.00;;;23.66;45.28
38718;BME280;24468;52.128;9.278;2022-09-01T11:29:58;101304.31;;;23.59;43.93
38718;BME280;24468;52.128;9.278;2022-09-01T11:32:36;101291.09;;;24.35;43.80
38718;BME280;24468;52.128;9.278;2022-09-01T11:35:06;101277.53;;;23.91;44.73
38718;BME280;24468;52.128;9.278;2022-09-01T11:37:39;101284.44;;;23.97;44.70
38718;BME280;24468;52.128;9.278;2022-09-01T11:40:06;101280.78;;;24.27;43.54
38718;BME280;24468;52.128;9.278;2022-09-01T11:42:43;101271.50;;;24.28;42.25
38718;BME280;24468;52.128;9.278;2022-09-01T11:47:46;101280.69;;;24.08;41.58
38718;BME280;24468;52.128;9.278;2022-09-01T11:50:19;101274.66;;;24.54;40.77
38718;BME280;24468;52.128;9.278;2022-09-01T11:53:07;101274.91;;;24.11;40.25
38718;BME280;24468;52.128;9.278;2022-09-01T11:55:46;101276.63;;;24.42;40.37
38718;BME280;24468;52.128;9.278;2022-09-01T11:58:33;101277.63;;;24.41;40.23
38718;BME280;24468;52.128;9.278;2022-09-01T12:01:20;101274.72;;;24.83;39.87
38718;BME280;24468;52.128;9.278;2022-09-01T12:03:49;101262.16;;;24.50;39.32
38718;BME280;24468;52.128;9.278;2022-09-01T12:06:24;101266.16;;;24.77;39.00
38718;BME280;24468;52.128;9.278;2022-09-01T12:09:00;101276.09;;;24.18;39.22
38718;BME280;24468;52.128;9.278;2022-09-01T12:11:35;101280.81;;;24.77;38.50
38718;BME280;24468;52.128;9.278;2022-09-01T12:14:08;101266.28;;;24.66;38.29
38718;BME280;24468;52.128;9.278;2022-09-01T12:16:35;101271.19;;;24.62;38.59
38718;BME280;24468;52.128;9.278;2022-09-01T12:19:05;101265.25;;;24.76;38.24
38718;BME280;24468;52.128;9.278;2022-09-01T12:21:37;101261.00;;;24.62;38.58
38718;BME280;24468;52.128;9.278;2022-09-01T12:24:20;101271.66;;;24.77;37.96
38718;BME280;24468;52.128;9.278;2022-09-01T12:26:50;101270.19;;;24.63;38.36
38718;BME280;24468;52.128;9.278;2022-09-01T12:29:18;101268.63;;;24.90;38.05
38718;BME280;24468;52.128;9.278;2022-09-01T12:31:48;101257.75;;;25.56;37.14
38718;BME280;24468;52.128;9.278;2022-09-01T12:37:23;101261.47;;;24.68;38.21
38718;BME280;24468;52.128;9.278;2022-09-01T12:39:56;101258.81;;;25.26;37.13
38718;BME280;24468;52.128;9.278;2022-09-01T12:42:30;101261.97;;;25.02;37.25
38718;BME280;24468;52.128;9.278;2022-09-01T12:45:00;101258.31;;;25.11;37.46
38718;BME280;24468;52.128;9.278;2022-09-01T12:49:59;101264.06;;;24.59;37.77
38718;BME280;24468;52.128;9.278;2022-09-01T12:52:30;101252.66;;;24.33;38.13
38718;BME280;24468;52.128;9.278;2022-09-01T12:57:34;101250.00;;;24.22;37.66
38718;BME280;24468;52.128;9.278;2022-09-01T13:00:12;101253.22;;;24.77;37.63
38718;BME280;24468;52.128;9.278;2022-09-01T13:03:04;101245.06;;;24.76;37.32
38718;BME280;24468;52.128;9.278;2022-09-01T13:05:33;101238.44;;;23.98;38.06
38718;BME280;24468;52.128;9.278;2022-09-01T13:08:12;101241.38;;;23.75;38.45
38718;BME280;24468;52.128;9.278;2022-09-01T13:10:44;101226.72;;;24.46;37.80
38718;BME280;24468;52.128;9.278;2022-09-01T13:13:13;101229.50;;;24.65;37.65
38718;BME280;24468;52.128;9.278;2022-09-01T13:15:45;101233.91;;;24.77;37.26
38718;BME280;24468;52.128;9.278;2022-09-01T13:18:19;101236.34;;;24.61;37.55
38718;BME280;24468;52.128;9.278;2022-09-01T13:20:47;101224.31;;;25.01;37.12
38718;BME280;24468;52.128;9.278;2022-09-01T13:23:13;101219.22;;;25.06;36.84
38718;BME280;24468;52.128;9.278;2022-09-01T13:25:39;101230.13;;;25.37;36.71
38718;BME280;24468;52.128;9.278;2022-09-01T13:28:06;101219.06;;;25.46;35.93
38718;BME280;24468;52.128;9.278;2022-09-01T13:30:33;101213.41;;;25.48;36.77
38718;BME280;24468;52.128;9.278;2022-09-01T13:32:59;101207.75;;;25.40;36.75
38718;BME280;24468;52.128;9.278;2022-09-01T13:35:26;101211.59;;;25.76;36.09
38718;BME280;24468;52.128;9.278;2022-09-01T13:37:51;101199.44;;;26.24;35.72
38718;BME280;24468;52.128;9.278;2022-09-01T13:40:19;101196.78;;;26.32;35.48
38718;BME280;24468;52.128;9.278;2022-09-01T13:42:48;101200.06;;;26.91;34.82
38718;BME280;24468;52.128;9.278;2022-09-01T13:45:17;101190.97;;;26.99;35.00
38718;BME280;24468;52.128;9.278;2022-09-01T13:47:45;101187.88;;;26.84;34.41
38718;BME280;24468;52.128;9.278;2022-09-01T13:50:14;101188.19;;;26.81;34.23
38718;BME280;24468;52.128;9.278;2022-09-01T13:52:47;101185.16;;;26.92;35.11
38718;BME280;24468;52.128;9.278;2022-09-01T13:55:18;101180.91;;;26.62;35.13
38718;BME280;24468;52.128;9.278;2022-09-01T13:57:44;101184.56;;;26.07;35.32
38718;BME280;24468;52.128;9.278;2022-09-01T14:00:18;101180.69;;;26.46;35.04
38718;BME280;24468;52.128;9.278;2022-09-01T14:02:49;101186.13;;;26.83;34.84
38718;BME280;24468;52.128;9.278;2022-09-01T14:05:32;101177.06;;;26.45;35.32